Time;durP1;ratioP1;P1;durP2;ratioP2;P2;SDS_P1;SDS_P2;PMS_P1;PMS_P2;Temp;Humidity;BMP_temperature;BMP_pressure;BME280_temperature;BME280_humidity;BME280_pressure;Samples;Min_cycle;Max_cycle;Signal;HPM_P1;HPM_P2
2023/09/30 00:00:59;;;;;;;5.47;3.53;;;;;;;18.28;100.00;98922.47;5134638;27;20212;-72
2023/09/30 00:03:26;;;;;;;6.53;3.23;;;;;;;18.33;100.00;98930.66;5134560;27;20661;-72
2023/09/30 00:05:53;;;;;;;7.27;3.77;;;;;;;18.26;100.00;98924.63;5134342;27;20210;-72
2023/09/30 00:08:19;;;;;;;9.63;3.87;;;;;;;18.23;100.00;98924.31;5134347;27;20656;-72
2023/09/30 00:10:46;;;;;;;4.93;3.53;;;;;;;18.15;100.00;98920.13;5134294;27;20734;-72
2023/09/30 00:13:13;;;;;;;4.50;2.87;;;;;;;18.22;100.00;98914.59;5134665;27;20255;-72
2023/09/30 00:15:40;;;;;;;5.37;3.53;;;;;;;18.25;100.00;98914.09;5134390;27;20202;-72
2023/09/30 00:18:07;;;;;;;7.50;3.37;;;;;;;18.29;100.00;98907.16;5134313;27;20705;-72
2023/09/30 00:20:33;;;;;;;5.00;3.17;;;;;;;18.03;100.00;98908.66;5134761;27;20198;-72
2023/09/30 00:23:00;;;;;;;6.20;3.13;;;;;;;18.07;100.00;98917.06;5134308;27;20210;-72
2023/09/30 00:25:27;;;;;;;5.17;3.17;;;;;;;18.09;100.00;98918.44;5134705;27;20202;-72
2023/09/30 00:27:54;;;;;;;5.83;3.13;;;;;;;18.19;100.00;98918.59;5134516;27;20226;-72
2023/09/30 00:30:21;;;;;;;4.60;2.70;;;;;;;18.13;100.00;98913.38;5134438;27;20214;-72
2023/09/30 00:32:47;;;;;;;5.73;2.80;;;;;;;18.17;100.00;98918.03;5134140;27;20213;-72
2023/09/30 00:35:14;;;;;;;5.33;2.60;;;;;;;18.14;100.00;98921.19;5134516;28;20209;-72
2023/09/30 00:37:42;;;;;;;4.53;2.80;;;;;;;18.17;100.00;98922.59;5134483;28;20233;-72
2023/09/30 00:40:11;;;;;;;4.17;2.67;;;;;;;17.92;100.00;98916.81;5134163;28;20203;-72
2023/09/30 00:42:38;;;;;;;4.10;2.50;;;;;;;18.12;100.00;98920.66;5134357;28;20202;-72
2023/09/30 00:45:06;;;;;;;4.00;2.47;;;;;;;17.99;100.00;98928.22;5134448;28;20198;-72
2023/09/30 00:47:34;;;;;;;4.87;1.87;;;;;;;17.93;100.00;98921.97;5134350;28;20234;-72
2023/09/30 00:50:01;;;;;;;3.93;2.13;;;;;;;17.97;100.00;98923.06;5133944;28;20248;-72
2023/09/30 00:52:28;;;;;;;2.90;1.90;;;;;;;17.74;100.00;98919.75;5134399;28;20570;-72
2023/09/30 00:54:55;;;;;;;2.40;1.80;;;;;;;17.76;100.00;98921.13;5134115;28;20660;-72
2023/09/30 00:57:22;;;;;;;3.90;1.73;;;;;;;17.67;100.00;98922.59;5134377;28;20223;-72
2023/09/30 00:59:50;;;;;;;4.13;1.80;;;;;;;17.57;100.00;98927.81;5134383;28;20206;-72
2023/09/30 01:02:18;;;;;;;3.23;2.17;;;;;;;17.52;100.00;98925.03;5135090;28;20203;-72
2023/09/30 01:04:45;;;;;;;4.23;2.30;;;;;;;17.51;100.00;98926.06;5134519;27;20210;-72
2023/09/30 01:07:12;;;;;;;4.03;2.30;;;;;;;17.51;100.00;98922.56;5138372;27;20217;-72
2023/09/30 01:09:39;;;;;;;3.23;2.30;;;;;;;17.36;100.00;98920.38;5137861;27;20565;-72
2023/09/30 01:12:05;;;;;;;2.90;2.03;;;;;;;17.32;100.00;98919.25;5138269;27;20213;-72
2023/09/30 01:14:34;;;;;;;4.40;2.70;;;;;;;17.36;100.00;98916.88;5138164;27;20224;-72
2023/09/30 01:17:01;;;;;;;4.67;2.30;;;;;;;17.27;100.00;98921.84;5137916;27;20202;-72
2023/09/30 01:19:28;;;;;;;4.17;2.20;;;;;;;17.27;100.00;98923.69;5137760;27;20201;-72
2023/09/30 01:21:59;;;;;;;3.83;2.63;;;;;;;17.17;100.00;98920.81;5137958;27;20307;-72
2023/09/30 01:24:29;;;;;;;5.50;2.60;;;;;;;17.28;100.00;98914.59;5138032;27;20244;-72
2023/09/30 01:26:56;;;;;;;3.10;2.30;;;;;;;17.31;100.00;98916.78;5137907;27;20206;-72
2023/09/30 01:29:25;;;;;;;5.33;2.90;;;;;;;17.22;100.00;98915.53;5137745;27;20237;-72
2023/09/30 01:31:52;;;;;;;3.47;2.30;;;;;;;17.06;100.00;98913.63;5137463;27;20214;-72
2023/09/30 01:34:18;;;;;;;2.63;2.10;;;;;;;17.07;100.00;98916.09;5137823;27;20231;-72
2023/09/30 01:36:45;;;;;;;3.47;2.00;;;;;;;17.09;100.00;98908.59;5137799;27;20203;-72
2023/09/30 01:39:12;;;;;;;2.47;2.20;;;;;;;17.17;100.00;98920.81;5137700;27;20275;-72
2023/09/30 01:41:39;;;;;;;2.90;2.33;;;;;;;17.11;100.00;98913.72;5137668;27;20203;-72
2023/09/30 01:44:06;;;;;;;4.83;2.40;;;;;;;17.10;100.00;98915.59;5137678;27;20199;-72
2023/09/30 01:46:32;;;;;;;3.43;2.27;;;;;;;17.06;100.00;98917.13;5137585;27;20199;-72
2023/09/30 01:48:59;;;;;;;2.73;2.20;;;;;;;17.03;100.00;98916.78;5137238;27;20234;-72
2023/09/30 01:51:25;;;;;;;3.67;2.50;;;;;;;17.03;100.00;98920.31;5136685;27;20225;-72
2023/09/30 01:53:51;;;;;;;4.17;2.37;;;;;;;17.06;100.00;98924.38;5137506;27;20210;-72
2023/09/30 01:56:18;;;;;;;3.50;2.50;;;;;;;17.06;100.00;98921.69;5137066;27;20669;-72
2023/09/30 01:58:44;;;;;;;3.57;2.30;;;;;;;16.99;100.00;98921.00;5137209;27;20573;-72
2023/09/30 02:01:11;;;;;;;3.67;2.40;;;;;;;17.14;100.00;98921.31;5136981;27;20202;-72
2023/09/30 02:03:37;;;;;;;3.73;2.20;;;;;;;17.01;100.00;98922.41;5137272;27;20208;-72
2023/09/30 02:06:04;;;;;;;2.90;1.93;;;;;;;16.94;100.00;98926.28;5137221;27;20217;-72
2023/09/30 02:08:31;;;;;;;3.53;2.27;;;;;;;16.97;100.00;98917.75;5137099;27;20226;-72
2023/09/30 02:10:57;;;;;;;3.63;2.13;;;;;;;17.04;100.00;98910.34;5137027;27;20385;-72
2023/09/30 02:13:24;;;;;;;2.80;2.07;;;;;;;16.88;100.00;98921.88;5137069;27;20212;-72
2023/09/30 02:15:50;;;;;;;3.20;2.03;;;;;;;16.73;100.00;98918.88;5136270;27;20636;-72
2023/09/30 02:18:17;;;;;;;4.33;2.53;;;;;;;16.79;100.00;98928.66;5136911;27;20218;-72
2023/09/30 02:20:44;;;;;;;3.17;2.33;;;;;;;16.71;100.00;98929.84;5136916;27;20202;-72
2023/09/30 02:23:11;;;;;;;3.83;2.57;;;;;;;16.90;100.00;98934.00;5136614;27;20558;-72
2023/09/30 02:25:41;;;;;;;5.23;3.10;;;;;;;16.80;100.00;98933.81;5136497;27;20629;-72
2023/09/30 02:28:08;;;;;;;4.50;2.90;;;;;;;16.90;100.00;98933.19;5136709;27;20222;-72
2023/09/30 02:30:34;;;;;;;5.00;2.80;;;;;;;17.01;100.00;98940.41;5136134;27;20735;-72
2023/09/30 02:33:01;;;;;;;4.90;3.10;;;;;;;16.86;100.00;98934.72;5136305;27;20210;-72
2023/09/30 02:35:27;;;;;;;5.23;3.30;;;;;;;16.83;100.00;98933.31;5136573;27;20234;-72
2023/09/30 02:37:53;;;;;;;6.83;3.80;;;;;;;16.94;100.00;98934.34;5136334;27;20222;-72
2023/09/30 02:40:20;;;;;;;5.43;3.40;;;;;;;17.03;100.00;98939.13;5136512;27;20205;-72
2023/09/30 02:42:47;;;;;;;7.03;3.27;;;;;;;17.00;100.00;98936.88;5135927;27;20208;-72
2023/09/30 02:45:14;;;;;;;3.93;3.20;;;;;;;16.87;100.00;98941.72;5136120;27;20218;-72
2023/09/30 02:47:40;;;;;;;6.27;3.27;;;;;;;16.92;100.00;98939.16;5136276;27;20225;-72
2023/09/30 02:50:11;;;;;;;4.07;3.20;;;;;;;16.91;100.00;98946.38;5136231;27;20229;-72
2023/09/30 02:52:39;;;;;;;5.40;3.70;;;;;;;16.81;100.00;98932.75;5136018;27;20609;-72
2023/09/30 02:55:06;;;;;;;5.37;3.60;;;;;;;16.76;100.00;98935.34;5135907;27;20660;-72
2023/09/30 02:57:32;;;;;;;4.27;3.40;;;;;;;16.83;100.00;98930.63;5136130;27;20309;-72
2023/09/30 03:00:00;;;;;;;7.00;4.20;;;;;;;16.83;100.00;98937.88;5135798;27;20203;-72
2023/09/30 03:02:26;;;;;;;8.10;3.70;;;;;;;16.89;100.00;98931.56;5135955;27;20198;-72
2023/09/30 03:04:53;;;;;;;6.73;3.43;;;;;;;16.89;100.00;98934.25;5135995;27;20198;-72
2023/09/30 03:07:20;;;;;;;7.60;3.47;;;;;;;16.89;100.00;98947.66;5135829;27;20202;-72
2023/09/30 03:09:47;;;;;;;6.90;3.60;;;;;;;16.82;100.00;98955.84;5135807;27;20596;-72
2023/09/30 03:12:13;;;;;;;6.93;3.70;;;;;;;16.85;100.00;98966.13;5135855;27;20209;-72
2023/09/30 03:14:40;;;;;;;4.77;3.13;;;;;;;16.95;100.00;98969.03;5135380;27;20202;-72
2023/09/30 03:17:11;;;;;;;6.40;3.80;;;;;;;16.99;100.00;98977.41;5135647;27;20202;-72
2023/09/30 03:19:37;;;;;;;5.10;3.30;;;;;;;16.84;100.00;98975.25;5135398;27;20183;-72
2023/09/30 03:22:05;;;;;;;7.37;3.50;;;;;;;16.87;100.00;98982.81;5135196;27;20202;-72
2023/09/30 03:24:31;;;;;;;6.27;3.33;;;;;;;16.98;100.00;98976.63;5135760;27;20241;-72
2023/09/30 03:26:58;;;;;;;5.60;3.60;;;;;;;16.85;100.00;98973.38;5135327;27;20199;-72
2023/09/30 03:29:26;;;;;;;6.20;3.43;;;;;;;16.84;100.00;98980.63;5134926;27;20253;-72
2023/09/30 03:31:52;;;;;;;6.73;3.47;;;;;;;16.83;100.00;98968.22;5135151;27;20222;-72
2023/09/30 03:34:20;;;;;;;6.03;3.40;;;;;;;16.91;100.00;98977.78;5135529;27;20207;-72
2023/09/30 03:36:46;;;;;;;6.43;3.33;;;;;;;16.85;100.00;98987.63;5135396;27;20210;-72
2023/09/30 03:39:15;;;;;;;6.73;3.57;;;;;;;16.87;100.00;98977.44;5135141;27;20218;-72
2023/09/30 03:41:41;;;;;;;4.67;3.00;;;;;;;16.84;100.00;98967.19;5135254;27;20203;-72
2023/09/30 03:44:08;;;;;;;6.57;3.00;;;;;;;16.85;100.00;98966.13;5135179;27;20202;-72
2023/09/30 03:46:34;;;;;;;3.83;3.10;;;;;;;16.83;100.00;98956.69;5135124;27;20210;-72
2023/09/30 03:49:01;;;;;;;5.33;3.10;;;;;;;16.81;100.00;98948.03;5135083;27;20222;-72
2023/09/30 03:51:27;;;;;;;5.93;3.30;;;;;;;16.75;100.00;98943.63;5135027;27;20233;-72
2023/09/30 03:53:53;;;;;;;5.90;2.93;;;;;;;16.62;100.00;98936.66;5135105;27;20218;-72
2023/09/30 03:56:22;;;;;;;4.03;3.07;;;;;;;16.69;100.00;98945.38;5135075;27;20203;-72
2023/09/30 03:58:48;;;;;;;5.63;3.60;;;;;;;16.69;100.00;98940.00;5134761;27;20696;-72
2023/09/30 04:01:16;;;;;;;6.23;3.07;;;;;;;16.64;100.00;98947.94;5135008;27;20550;-72
2023/09/30 04:03:43;;;;;;;5.10;2.90;;;;;;;16.65;100.00;98949.56;5135022;27;20211;-72
2023/09/30 04:06:10;;;;;;;8.03;3.17;;;;;;;16.59;100.00;98942.47;5134889;27;20202;-72
2023/09/30 04:08:36;;;;;;;5.43;3.13;;;;;;;16.62;100.00;98943.88;5134608;27;20305;-72
2023/09/30 04:11:04;;;;;;;4.13;3.23;;;;;;;16.66;100.00;98956.59;5134316;27;20708;-72
2023/09/30 04:13:30;;;;;;;5.37;3.00;;;;;;;16.71;100.00;98963.94;5134669;27;20208;-72
2023/09/30 04:15:58;;;;;;;4.40;3.37;;;;;;;16.76;100.00;98959.50;5134702;27;20199;-72
2023/09/30 04:18:26;;;;;;;5.30;3.40;;;;;;;16.82;100.00;98952.38;5134612;27;20226;-72
2023/09/30 04:20:53;;;;;;;5.33;3.80;;;;;;;16.85;100.00;98955.41;5134711;27;20234;-72
2023/09/30 04:23:20;;;;;;;4.77;3.20;;;;;;;16.85;100.00;98958.06;5134666;27;20198;-72
2023/09/30 04:25:47;;;;;;;4.83;3.50;;;;;;;16.84;100.00;98951.09;5134512;27;20229;-72
2023/09/30 04:28:15;;;;;;;4.13;3.20;;;;;;;16.92;100.00;98956.06;5134458;27;20234;-72
2023/09/30 04:30:42;;;;;;;6.50;3.17;;;;;;;16.85;100.00;98954.56;5134433;27;20256;-72
2023/09/30 04:33:09;;;;;;;5.33;3.47;;;;;;;16.83;100.00;98954.78;5134645;27;20187;-72
2023/09/30 04:35:37;;;;;;;4.87;3.07;;;;;;;16.79;100.00;98956.31;5134078;27;20207;-72
2023/09/30 04:38:04;;;;;;;5.50;3.27;;;;;;;16.79;100.00;98952.84;5134308;28;20222;-72
2023/09/30 04:40:32;;;;;;;4.93;3.37;;;;;;;16.77;100.00;98957.63;5140220;27;20209;-72
2023/09/30 04:42:59;;;;;;;5.93;3.63;;;;;;;16.75;100.00;98971.31;5141291;27;20251;-72
2023/09/30 04:45:26;;;;;;;5.90;3.30;;;;;;;16.69;100.00;98976.78;5141252;27;20210;-72
2023/09/30 04:47:55;;;;;;;7.23;3.77;;;;;;;16.70;100.00;98979.22;5141128;27;20294;-72
2023/09/30 04:50:22;;;;;;;7.37;3.47;;;;;;;16.73;100.00;98975.28;5141154;27;20223;-72
2023/09/30 04:52:50;;;;;;;5.53;3.23;;;;;;;16.76;100.00;98978.28;5141203;27;20294;-72
2023/09/30 04:55:16;;;;;;;6.50;3.63;;;;;;;16.80;100.00;98978.63;5141081;27;20278;-72
2023/09/30 04:57:45;;;;;;;6.00;3.80;;;;;;;16.79;100.00;98988.53;5140821;27;20708;-72
2023/09/30 05:00:14;;;;;;;4.50;3.10;;;;;;;16.83;100.00;98989.72;5141131;27;20202;-72
2023/09/30 05:02:40;;;;;;;5.90;3.20;;;;;;;16.72;100.00;98997.78;5122915;27;20208;-72
2023/09/30 05:05:07;;;;;;;4.73;3.30;;;;;;;16.68;100.00;99002.81;5141018;27;20229;-72
2023/09/30 05:07:34;;;;;;;5.50;3.50;;;;;;;16.74;100.00;99007.25;5140933;27;20222;-72
2023/09/30 05:10:00;;;;;;;5.87;3.10;;;;;;;16.73;100.00;99000.25;5140957;27;20206;-72
2023/09/30 05:12:26;;;;;;;5.23;3.10;;;;;;;16.74;100.00;99001.06;5140978;27;20206;-72
2023/09/30 05:14:54;;;;;;;5.00;2.93;;;;;;;16.73;100.00;99002.13;5140854;27;20546;-72
2023/09/30 05:17:21;;;;;;;4.53;3.30;;;;;;;16.71;100.00;99006.91;5140820;27;20241;-72
2023/09/30 05:19:48;;;;;;;5.30;3.23;;;;;;;16.63;100.00;99010.75;5122329;27;20618;-72
2023/09/30 05:22:15;;;;;;;5.03;2.90;;;;;;;16.67;100.00;99013.78;5140425;27;20680;-72
2023/09/30 05:24:41;;;;;;;5.43;3.17;;;;;;;16.71;100.00;99010.41;5140702;27;20206;-72
2023/09/30 05:27:09;;;;;;;4.10;3.33;;;;;;;16.64;100.00;99001.66;5140754;27;20198;-71
2023/09/30 05:29:35;;;;;;;6.00;3.47;;;;;;;16.64;100.00;98993.59;5140864;27;20292;-71
2023/09/30 05:32:02;;;;;;;3.87;3.00;;;;;;;16.70;100.00;98998.00;5140160;27;20592;-71
2023/09/30 05:34:29;;;;;;;6.63;3.40;;;;;;;16.69;100.00;98993.69;5140768;27;20279;-71
2023/09/30 05:36:55;;;;;;;6.37;3.60;;;;;;;16.61;100.00;98991.38;5140661;27;20206;-71
2023/09/30 05:39:21;;;;;;;6.30;3.20;;;;;;;16.52;100.00;98989.28;5139937;27;20219;-71
2023/09/30 05:41:48;;;;;;;4.03;3.47;;;;;;;16.60;100.00;98999.69;5140437;27;20202;-71
2023/09/30 05:44:15;;;;;;;6.70;3.27;;;;;;;16.55;100.00;98989.63;5140286;27;20641;-71
2023/09/30 05:46:42;;;;;;;4.87;3.10;;;;;;;16.52;100.00;98982.03;5141421;27;20207;-71
2023/09/30 05:49:13;;;;;;;5.07;3.10;;;;;;;16.58;100.00;98991.84;5140433;27;20226;-71
2023/09/30 05:51:40;;;;;;;5.80;3.10;;;;;;;16.50;100.00;99005.63;5137289;27;20241;-71
2023/09/30 05:54:09;;;;;;;5.93;3.57;;;;;;;16.42;100.00;99013.22;5136941;27;20245;-72
2023/09/30 05:56:36;;;;;;;6.17;3.73;;;;;;;16.42;100.00;99011.34;5136962;27;20242;-72
2023/09/30 05:59:04;;;;;;;9.20;4.23;;;;;;;16.50;100.00;99019.03;5137057;27;20229;-72
2023/09/30 06:01:32;;;;;;;5.63;3.40;;;;;;;16.55;100.00;99023.72;5137172;27;20195;-72
2023/09/30 06:03:59;;;;;;;10.90;3.80;;;;;;;16.61;100.00;99018.22;5137100;27;20206;-72
2023/09/30 06:06:27;;;;;;;7.33;3.80;;;;;;;16.61;100.00;99014.72;5136733;27;20239;-72
2023/09/30 06:08:54;;;;;;;8.37;3.70;;;;;;;16.56;100.00;99020.78;5136553;27;20614;-72
2023/09/30 06:11:24;;;;;;;5.77;3.70;;;;;;;16.62;100.00;99027.94;5136605;27;20630;-72
2023/09/30 06:13:53;;;;;;;6.67;3.43;;;;;;;16.68;100.00;99032.34;5137152;27;20615;-72
2023/09/30 06:16:20;;;;;;;6.97;3.47;;;;;;;16.71;100.00;99045.31;5136660;27;20263;-72
2023/09/30 06:18:48;;;;;;;8.07;3.43;;;;;;;16.81;100.00;99047.41;5136736;27;20323;-72
2023/09/30 06:21:17;;;;;;;6.80;3.50;;;;;;;16.63;100.00;99044.84;5136845;27;20591;-73
2023/09/30 06:23:44;;;;;;;7.73;3.80;;;;;;;16.64;100.00;99057.25;5136843;27;20293;-73
2023/09/30 06:26:10;;;;;;;6.07;3.73;;;;;;;16.83;100.00;99053.38;5136718;27;20297;-73
2023/09/30 06:28:40;;;;;;;6.23;3.40;;;;;;;16.89;100.00;99052.44;5136433;27;20222;-73
2023/09/30 06:31:08;;;;;;;5.80;4.00;;;;;;;17.06;100.00;99053.34;5136267;27;20818;-73
2023/09/30 06:33:38;;;;;;;9.03;3.63;;;;;;;16.84;100.00;99049.63;5136330;27;20703;-74
2023/09/30 06:36:10;;;;;;;7.50;4.27;;;;;;;16.92;100.00;99060.81;5136733;27;20247;-73
2023/09/30 06:38:37;;;;;;;9.43;4.23;;;;;;;16.81;100.00;99053.59;5136294;27;20258;-73
2023/09/30 06:41:04;;;;;;;6.43;3.93;;;;;;;16.87;100.00;99055.34;5136490;27;20267;-72
2023/09/30 06:43:32;;;;;;;9.17;4.07;;;;;;;16.89;100.00;99053.25;5136367;27;20271;-72
2023/09/30 06:45:58;;;;;;;7.23;4.23;;;;;;;17.03;100.00;99057.31;5136340;27;20199;-72
2023/09/30 06:48:24;;;;;;;4.77;3.73;;;;;;;16.89;100.00;99071.22;5135803;27;20233;-72
2023/09/30 06:50:52;;;;;;;7.23;3.93;;;;;;;17.02;100.00;99073.69;5135896;27;20709;-72
2023/09/30 06:53:21;;;;;;;7.10;3.70;;;;;;;17.06;100.00;99075.63;5135972;27;20206;-72
2023/09/30 06:55:48;;;;;;;6.87;4.10;;;;;;;17.18;100.00;99084.50;5136150;27;20199;-72
2023/09/30 06:58:14;;;;;;;6.23;3.80;;;;;;;17.31;100.00;99096.88;5136113;27;20314;-72
2023/09/30 07:00:44;;;;;;;7.10;4.20;;;;;;;17.31;100.00;99091.50;5136093;27;20293;-72
2023/09/30 07:03:10;;;;;;;4.27;3.50;;;;;;;17.31;100.00;99078.88;5134372;27;20573;-72
2023/09/30 07:05:37;;;;;;;7.60;4.27;;;;;;;17.26;100.00;99078.78;5135848;27;20207;-73
2023/09/30 07:08:04;;;;;;;7.97;3.83;;;;;;;17.14;100.00;99080.66;5135833;27;20222;-73
2023/09/30 07:10:30;;;;;;;8.20;4.53;;;;;;;17.07;100.00;99071.94;5135739;27;20226;-73
2023/09/30 07:12:57;;;;;;;7.67;4.13;;;;;;;17.17;100.00;99072.13;5135608;27;20688;-73
2023/09/30 07:15:24;;;;;;;9.60;5.00;;;;;;;16.95;100.00;99068.44;5135820;27;20203;-73
2023/09/30 07:17:50;;;;;;;6.23;4.67;;;;;;;16.58;100.00;99067.03;5135294;27;20705;-73
2023/09/30 07:20:17;;;;;;;6.80;4.53;;;;;;;16.85;100.00;99073.56;5135409;27;20208;-73
2023/09/30 07:22:44;;;;;;;6.70;4.70;;;;;;;17.18;100.00;99078.31;5135139;27;20669;-73
2023/09/30 07:25:10;;;;;;;10.00;4.50;;;;;;;17.04;100.00;99080.44;5135282;27;20206;-72
2023/09/30 07:27:37;;;;;;;9.17;4.40;;;;;;;17.05;100.00;99084.75;5135379;27;20218;-73
2023/09/30 07:30:06;;;;;;;6.47;4.53;;;;;;;17.06;100.00;99085.59;5135350;27;20198;-73
2023/09/30 07:32:33;;;;;;;8.27;4.43;;;;;;;17.13;100.00;99103.22;5135323;27;20688;-73
2023/09/30 07:34:59;;;;;;;7.87;4.93;;;;;;;16.58;100.00;99110.00;5135453;27;20212;-73
2023/09/30 07:37:25;;;;;;;6.60;4.17;;;;;;;16.80;100.00;99097.63;5135102;27;20223;-73
2023/09/30 07:39:51;;;;;;;7.63;4.83;;;;;;;16.83;100.00;99096.34;5135078;27;20203;-72
2023/09/30 07:42:18;;;;;;;5.57;3.87;;;;;;;16.89;100.00;99090.03;5135220;27;20194;-72
2023/09/30 07:44:44;;;;;;;7.67;4.53;;;;;;;17.03;100.00;99092.25;5135094;27;20202;-72
2023/09/30 07:47:11;;;;;;;7.83;4.40;;;;;;;17.07;100.00;99098.78;5134981;27;20202;-72
2023/09/30 07:49:38;;;;;;;7.00;4.53;;;;;;;17.21;100.00;99102.88;5135019;27;20206;-72
2023/09/30 07:52:05;;;;;;;7.33;3.90;;;;;;;17.35;100.00;99109.63;5134953;27;20218;-72
2023/09/30 07:54:31;;;;;;;8.00;4.50;;;;;;;17.49;100.00;99108.34;5134812;27;20205;-72
2023/09/30 07:56:58;;;;;;;7.30;4.63;;;;;;;17.60;100.00;99120.91;5134921;27;20209;-72
2023/09/30 07:59:25;;;;;;;8.77;4.67;;;;;;;17.46;100.00;99119.56;5134786;27;20275;-72
2023/09/30 08:01:52;;;;;;;8.23;4.63;;;;;;;17.63;100.00;99120.47;5134408;27;20557;-72
2023/09/30 08:04:18;;;;;;;9.30;4.70;;;;;;;17.43;100.00;99120.06;5134756;27;20225;-72
2023/09/30 08:06:46;;;;;;;9.07;4.60;;;;;;;17.58;100.00;99116.84;5134661;27;20284;-72
2023/09/30 08:09:15;;;;;;;8.17;4.30;;;;;;;17.85;100.00;99108.00;5134611;27;20222;-72
2023/09/30 08:11:42;;;;;;;7.57;4.23;;;;;;;17.75;100.00;99105.09;5134059;27;20214;-72
2023/09/30 08:14:09;;;;;;;8.13;4.40;;;;;;;17.86;100.00;99108.78;5134217;27;20605;-72
2023/09/30 08:16:38;;;;;;;6.40;4.67;;;;;;;18.11;100.00;99093.97;5134663;27;20209;-72
2023/09/30 08:19:05;;;;;;;5.30;4.30;;;;;;;18.06;100.00;99110.00;5134318;27;20229;-72
2023/09/30 08:21:32;;;;;;;6.50;4.33;;;;;;;18.22;100.00;99098.44;5134582;27;20243;-72
2023/09/30 08:23:58;;;;;;;7.63;4.47;;;;;;;18.12;100.00;99103.66;5134448;27;20206;-72
2023/09/30 08:26:25;;;;;;;8.50;4.40;;;;;;;18.33;100.00;99110.25;5134543;27;20198;-72
2023/09/30 08:28:51;;;;;;;8.90;4.23;;;;;;;18.34;100.00;99101.09;5134398;27;20312;-72
2023/09/30 08:31:18;;;;;;;6.07;3.87;;;;;;;18.28;100.00;99096.69;5133739;27;20734;-72
2023/09/30 08:33:45;;;;;;;7.87;4.37;;;;;;;18.42;100.00;99104.22;5134329;27;20191;-72
2023/09/30 08:36:12;;;;;;;8.20;4.60;;;;;;;18.40;100.00;99113.59;5134473;27;20214;-72
2023/09/30 08:38:40;;;;;;;10.97;4.20;;;;;;;18.63;100.00;99111.56;5134242;28;20225;-72
2023/09/30 08:41:07;;;;;;;5.40;3.80;;;;;;;18.60;100.00;99112.06;5134234;28;20210;-72
2023/09/30 08:43:41;;;;;;;6.60;4.20;;;;;;;18.75;100.00;99101.53;5134304;28;20202;-72
2023/09/30 08:46:08;;;;;;;6.63;3.97;;;;;;;18.82;100.00;99099.47;5134116;28;20569;-72
2023/09/30 08:48:35;;;;;;;6.97;4.00;;;;;;;18.66;100.00;99094.94;5133998;28;20225;-72
2023/09/30 08:51:03;;;;;;;6.73;4.20;;;;;;;18.75;100.00;99101.53;5134329;28;20203;-72
2023/09/30 08:53:31;;;;;;;6.50;4.30;;;;;;;18.79;100.00;99104.56;5134216;28;20206;-73
2023/09/30 08:56:00;;;;;;;7.03;4.03;;;;;;;18.78;100.00;99098.34;5134130;28;20242;-73
2023/09/30 08:58:29;;;;;;;7.07;4.10;;;;;;;19.04;100.00;99107.63;5134011;28;20227;-73
2023/09/30 09:00:57;;;;;;;6.90;3.70;;;;;;;19.21;100.00;99098.44;5134096;28;20199;-73
2023/09/30 09:03:23;;;;;;;7.20;4.20;;;;;;;19.03;100.00;99098.72;5133999;28;20202;-73
2023/09/30 09:05:57;;;;;;;6.33;4.23;;;;;;;19.24;100.00;99097.16;5134125;28;20213;-73
2023/09/30 09:08:26;;;;;;;5.60;4.50;;;;;;;19.54;100.00;99092.97;5133662;28;20724;-72
2023/09/30 09:11:03;;;;;;;5.63;4.40;;;;;;;19.52;100.00;99100.50;5133934;28;20263;-73
2023/09/30 09:13:36;;;;;;;7.80;4.20;;;;;;;19.45;100.00;99105.25;5134103;28;20240;-73
2023/09/30 09:16:12;;;;;;;4.80;4.00;;;;;;;19.63;100.00;99112.25;5133783;28;20556;-73
2023/09/30 09:18:38;;;;;;;6.37;4.03;;;;;;;19.50;100.00;99124.22;5133829;28;20228;-73
2023/09/30 09:21:25;;;;;;;5.50;3.33;;;;;;;19.21;100.00;99121.88;5134058;28;20207;-73
2023/09/30 09:23:52;;;;;;;6.67;4.60;;;;;;;19.03;100.00;99117.59;5133793;28;20191;-73
2023/09/30 09:26:19;;;;;;;5.13;3.80;;;;;;;19.63;100.00;99114.94;5136172;27;20270;-74
2023/09/30 09:28:45;;;;;;;7.40;4.30;;;;;;;19.50;100.00;99118.81;5137627;27;20222;-74
2023/09/30 09:31:25;;;;;;;5.57;3.83;;;;;;;19.13;100.00;99122.28;5137580;27;20220;-73
2023/09/30 09:33:53;;;;;;;7.10;3.93;;;;;;;19.28;100.00;99120.66;5137511;27;20202;-73
2023/09/30 09:36:20;;;;;;;9.27;4.73;;;;;;;19.30;100.00;99118.56;5137494;27;20259;-73
2023/09/30 09:38:53;;;;;;;6.07;4.13;;;;;;;19.45;100.00;99105.25;5137403;27;20226;-74
2023/09/30 09:41:20;;;;;;;10.60;4.23;;;;;;;19.53;100.00;99104.00;5137467;27;20228;-73
2023/09/30 09:43:51;;;;;;;6.93;3.80;;;;;;;19.41;100.00;99101.44;5137294;27;20203;-73
2023/09/30 09:46:18;;;;;;;7.03;4.13;;;;;;;19.53;100.00;99085.94;5137669;27;20207;-73
2023/09/30 09:48:47;;;;;;;7.33;4.20;;;;;;;20.08;100.00;99090.34;5137245;27;20222;-73
2023/09/30 09:51:14;;;;;;;9.03;4.43;;;;;;;19.77;100.00;99087.31;5137284;27;20203;-73
2023/09/30 09:53:43;;;;;;;5.40;4.10;;;;;;;19.34;100.00;99091.91;5136908;27;20234;-73
2023/09/30 09:56:11;;;;;;;7.77;4.60;;;;;;;19.67;100.00;99097.16;5136980;27;20285;-73
2023/09/30 09:58:38;;;;;;;6.33;4.17;;;;;;;19.87;100.00;99097.41;5136853;27;20784;-73
2023/09/30 10:01:09;;;;;;;5.93;4.40;;;;;;;19.80;100.00;99098.69;5137202;27;20207;-73
2023/09/30 10:03:36;;;;;;;7.43;4.77;;;;;;;19.46;100.00;99101.50;5137084;27;20186;-73
2023/09/30 10:06:03;;;;;;;7.83;4.80;;;;;;;18.93;100.00;99101.28;5136666;27;20207;-72
2023/09/30 10:08:34;;;;;;;9.90;4.60;;;;;;;18.86;100.00;99106.00;5137088;27;20222;-72
2023/09/30 10:11:02;;;;;;;8.07;4.23;;;;;;;18.93;100.00;99103.97;5137187;27;20183;-72
2023/09/30 10:13:50;;;;;;;7.63;4.57;;;;;;;19.16;100.00;99100.25;5136877;27;20225;-72
2023/09/30 10:16:36;;;;;;;6.17;3.93;;;;;;;19.15;100.00;99085.97;5136964;27;20205;-72
2023/09/30 10:19:17;;;;;;;6.23;4.23;;;;;;;18.73;100.00;99084.00;5136497;27;20222;-72
2023/09/30 10:22:17;;;;;;;7.53;3.90;;;;;;;19.01;100.00;99081.97;5136854;27;20187;-72
2023/09/30 10:24:44;;;;;;;9.33;4.83;;;;;;;18.91;100.00;99075.63;5136492;27;20202;-72
2023/09/30 10:27:22;;;;;;;6.77;4.40;;;;;;;19.04;100.00;99072.56;5136515;27;20214;-72
2023/09/30 10:29:55;;;;;;;5.73;3.80;;;;;;;19.26;100.00;99073.44;5136398;27;20699;-72
2023/09/30 10:32:21;;;;;;;6.70;3.90;;;;;;;19.32;100.00;99078.66;5136189;27;20223;-72
2023/09/30 10:34:52;;;;;;;6.87;4.33;;;;;;;19.28;100.00;99088.31;5136489;27;20206;-72
2023/09/30 10:37:25;;;;;;;6.13;4.10;;;;;;;19.19;100.00;99087.06;5135880;27;20191;-72
2023/09/30 10:39:55;;;;;;;9.93;4.50;;;;;;;19.56;100.00;99076.53;5136256;27;20206;-72
2023/09/30 10:42:51;;;;;;;8.03;4.33;;;;;;;20.10;100.00;99066.63;5136125;27;20198;-72
2023/09/30 10:45:53;;;;;;;9.93;4.50;;;;;;;20.64;94.99;99065.47;5136314;27;20234;-72
2023/09/30 10:48:28;;;;;;;7.70;3.80;;;;;;;20.68;95.26;99063.88;5032502;28;20229;-72
2023/09/30 10:50:56;;;;;;;8.83;4.50;;;;;;;20.93;92.06;99053.28;5121704;27;20660;-72
2023/09/30 10:53:23;;;;;;;6.47;3.93;;;;;;;20.75;93.38;99050.97;5135907;27;20214;-72
2023/09/30 10:55:57;;;;;;;9.97;4.40;;;;;;;21.27;90.36;99058.09;5135832;27;20205;-72
2023/09/30 10:58:49;;;;;;;5.47;4.00;;;;;;;21.02;93.01;99046.31;5135887;27;20222;-72
2023/09/30 11:01:17;;;;;;;7.95;5.13;;;;;;;21.29;88.70;99055.13;5135156;27;20419;-72
2023/09/30 11:03:45;;;;;;;8.60;4.80;;;;;;;20.86;92.85;99047.25;5135530;27;20568;-72
2023/09/30 11:06:17;;;;;;;8.27;4.33;;;;;;;21.28;90.30;99050.75;5135329;27;20203;-72
2023/09/30 11:08:47;;;;;;;7.40;4.00;;;;;;;21.30;88.43;99040.50;5135787;27;20226;-72
2023/09/30 11:11:14;;;;;;;9.23;4.77;;;;;;;20.89;88.25;99044.84;5135791;27;20198;-72
2023/09/30 11:13:40;;;;;;;7.23;4.33;;;;;;;21.09;89.93;99039.59;5135343;27;20237;-72
2023/09/30 11:16:08;;;;;;;6.33;4.03;;;;;;;21.45;87.26;99027.03;5135348;27;20207;-72
2023/09/30 11:18:37;;;;;;;7.57;4.20;;;;;;;21.04;87.54;99025.22;5135502;27;20222;-72
2023/09/30 11:21:12;;;;;;;7.87;4.50;;;;;;;20.61;88.31;99023.56;5135188;27;20206;-73
2023/09/30 11:23:39;;;;;;;6.87;4.40;;;;;;;20.83;88.35;99026.97;5135458;27;20263;-73
2023/09/30 11:26:06;;;;;;;7.50;4.60;;;;;;;20.49;86.22;99022.16;5135137;27;20661;-73
2023/09/30 11:28:43;;;;;;;8.60;5.10;;;;;;;20.19;88.28;99029.97;5135115;27;20229;-73
2023/09/30 11:31:13;;;;;;;8.10;5.20;;;;;;;20.00;89.78;99026.84;5135172;27;20213;-73